createdAt,value
2023-03-26T00:00:44.706Z,9.65
2023-03-26T00:03:13.031Z,11.05
2023-03-26T00:05:41.017Z,9.80
2023-03-26T00:08:08.951Z,10.25
2023-03-26T00:10:40.152Z,9.95
2023-03-26T00:15:34.850Z,10.77
2023-03-26T00:18:02.647Z,10.27
2023-03-26T00:20:32.911Z,10.90
2023-03-26T00:23:03.811Z,11.70
2023-03-26T00:25:32.034Z,11.82
2023-03-26T00:27:59.253Z,11.77
2023-03-26T00:30:26.697Z,12.48
2023-03-26T00:32:54.163Z,11.82
2023-03-26T00:35:22.463Z,11.75
2023-03-26T00:37:51.579Z,11.20
2023-03-26T00:40:18.837Z,11.68
2023-03-26T00:42:45.966Z,11.55
2023-03-26T00:45:13.158Z,12.68
2023-03-26T00:47:40.468Z,12.77
2023-03-26T00:50:15.407Z,12.05
2023-03-26T00:52:43.874Z,12.02
2023-03-26T00:55:11.105Z,11.82
2023-03-26T00:57:40.265Z,12.43
2023-03-26T01:00:17.143Z,12.00
2023-03-26T01:02:45.475Z,13.93
2023-03-26T01:05:31.267Z,13.18
2023-03-26T01:07:58.546Z,13.05
2023-03-26T01:10:25.731Z,13.90
2023-03-26T01:12:52.823Z,13.13
2023-03-26T01:15:20.044Z,14.32
2023-03-26T01:17:47.193Z,13.63
2023-03-26T01:20:20.561Z,14.18
2023-03-26T01:22:51.080Z,13.75
2023-03-26T01:25:18.426Z,14.73
2023-03-26T01:27:50.157Z,14.07
2023-03-26T01:30:17.329Z,14.45
2023-03-26T01:33:04.135Z,13.88
2023-03-26T01:35:50.124Z,11.15
2023-03-26T01:38:24.617Z,9.57
2023-03-26T01:41:00.904Z,9.38
2023-03-26T01:43:40.352Z,8.68
2023-03-26T01:46:09.128Z,9.18
2023-03-26T01:48:40.595Z,8.73
2023-03-26T01:51:08.245Z,9.07
2023-03-26T01:53:37.848Z,8.15
2023-03-26T01:56:17.116Z,7.68
2023-03-26T01:59:04.320Z,7.82
2023-03-26T02:01:37.800Z,7.68
2023-03-26T02:04:12.039Z,8.13
2023-03-26T02:06:43.655Z,6.35
2023-03-26T02:09:13.457Z,6.28
2023-03-26T02:11:41.564Z,6.07
2023-03-26T02:14:09.883Z,5.32
2023-03-26T02:16:37.001Z,5.15
2023-03-26T02:19:04.460Z,4.78
2023-03-26T02:21:34.092Z,3.50
2023-03-26T02:24:06.940Z,3.55
2023-03-26T02:26:35.374Z,3.60
2023-03-26T02:29:03.089Z,2.90
2023-03-26T02:31:30.406Z,2.33
2023-03-26T02:33:57.831Z,2.15
2023-03-26T02:36:27.835Z,1.50
2023-03-26T02:38:57.850Z,1.48
2023-03-26T02:41:25.155Z,1.80
2023-03-26T02:43:52.292Z,1.60
2023-03-26T02:46:19.464Z,1.38
2023-03-26T02:48:46.725Z,1.17
2023-03-26T02:51:13.898Z,1.40
2023-03-26T02:53:41.273Z,1.30
2023-03-26T02:56:08.587Z,1.30
2023-03-26T02:58:35.705Z,1.30
2023-03-26T03:01:03.210Z,1.20
2023-03-26T03:03:30.671Z,1.40
2023-03-26T03:05:58.218Z,1.52
2023-03-26T03:08:28.127Z,1.25
2023-03-26T03:11:01.434Z,1.20
2023-03-26T03:13:28.666Z,1.40
2023-03-26T03:15:56.499Z,1.38
2023-03-26T03:18:23.855Z,1.42
2023-03-26T03:20:51.202Z,1.27
2023-03-26T03:23:18.459Z,1.50
2023-03-26T03:25:45.655Z,1.40
2023-03-26T03:28:13.819Z,1.42
2023-03-26T03:30:41.808Z,1.30
2023-03-26T03:33:09.056Z,1.80
2023-03-26T03:35:37.774Z,1.50
2023-03-26T03:38:04.953Z,1.67
2023-03-26T03:40:32.077Z,1.80
2023-03-26T03:42:59.199Z,1.63
2023-03-26T03:45:26.354Z,1.50
2023-03-26T03:47:54.056Z,1.40
2023-03-26T03:50:21.646Z,1.75
2023-03-26T03:52:48.763Z,1.67
2023-03-26T03:55:15.927Z,1.77
2023-03-26T03:57:43.012Z,1.92
2023-03-26T04:00:11.754Z,1.70
2023-03-26T04:02:39.127Z,2.38
2023-03-26T04:05:07.322Z,2.08
2023-03-26T04:07:34.470Z,2.80
2023-03-26T04:10:04.581Z,2.53
2023-03-26T04:12:32.104Z,2.30
2023-03-26T04:14:59.707Z,3.10
2023-03-26T04:17:27.268Z,3.13
2023-03-26T04:19:55.012Z,3.40
2023-03-26T04:22:23.524Z,2.40
2023-03-26T04:24:54.630Z,2.30
2023-03-26T04:29:50.311Z,2.92
2023-03-26T04:32:24.704Z,3.30
2023-03-26T04:34:52.505Z,3.10
2023-03-26T04:37:26.638Z,2.50
2023-03-26T04:39:55.042Z,2.47
2023-03-26T04:42:22.343Z,2.60
2023-03-26T04:44:52.656Z,2.35
2023-03-26T04:47:19.823Z,2.63
2023-03-26T04:49:47.467Z,2.67
2023-03-26T04:52:15.406Z,2.75
2023-03-26T04:54:44.157Z,2.13
2023-03-26T04:57:23.593Z,2.85
2023-03-26T04:59:51.384Z,2.25
2023-03-26T05:02:18.901Z,3.17
2023-03-26T05:04:46.347Z,2.30
2023-03-26T05:07:17.533Z,2.53
2023-03-26T05:09:44.631Z,2.53
2023-03-26T05:12:11.876Z,2.65
2023-03-26T05:14:38.933Z,2.90
2023-03-26T05:17:06.242Z,2.30
2023-03-26T05:19:33.524Z,2.10
2023-03-26T05:22:00.870Z,2.15
2023-03-26T05:24:28.746Z,2.08
2023-03-26T05:26:56.269Z,1.90
2023-03-26T05:29:24.213Z,2.17
2023-03-26T05:31:51.675Z,2.30
2023-03-26T05:34:20.596Z,2.50
2023-03-26T05:36:48.593Z,2.33
2023-03-26T05:39:15.725Z,2.13
2023-03-26T05:41:42.863Z,1.95
2023-03-26T05:44:09.955Z,1.98
2023-03-26T05:46:37.166Z,2.33
2023-03-26T05:49:04.391Z,2.08
2023-03-26T05:51:31.527Z,2.63
2023-03-26T05:53:58.689Z,2.53
2023-03-26T05:56:25.900Z,2.50
2023-03-26T05:58:52.973Z,2.60
2023-03-26T06:01:20.784Z,2.30
2023-03-26T06:03:47.988Z,2.75
2023-03-26T06:06:16.451Z,2.30
2023-03-26T06:08:46.789Z,2.47
2023-03-26T06:11:13.972Z,2.70
2023-03-26T06:13:41.148Z,2.42
2023-03-26T06:16:09.277Z,2.78
2023-03-26T06:18:56.893Z,2.70
2023-03-26T06:23:51.972Z,2.65
2023-03-26T06:26:19.230Z,2.08
2023-03-26T06:28:46.483Z,2.38
2023-03-26T06:31:13.713Z,2.72
2023-03-26T06:33:41.035Z,2.65
2023-03-26T06:36:08.363Z,2.50
2023-03-26T06:38:35.571Z,2.58
2023-03-26T06:41:03.666Z,1.90
2023-03-26T06:43:34.014Z,2.70
2023-03-26T06:46:04.468Z,3.00
2023-03-26T06:48:31.998Z,2.78
2023-03-26T06:50:59.189Z,2.50
2023-03-26T06:53:26.524Z,2.47
2023-03-26T06:55:54.339Z,3.05
2023-03-26T06:58:21.457Z,2.95
2023-03-26T07:00:48.742Z,2.50
2023-03-26T07:03:17.273Z,2.25
2023-03-26T07:05:44.480Z,2.80
2023-03-26T07:08:11.660Z,2.75
2023-03-26T07:10:38.783Z,2.47
2023-03-26T07:13:06.072Z,2.90
2023-03-26T07:15:33.309Z,2.25
2023-03-26T07:18:00.562Z,2.47
2023-03-26T07:20:27.815Z,2.60
2023-03-26T07:22:55.276Z,2.42
2023-03-26T07:25:22.554Z,2.38
2023-03-26T07:28:06.858Z,2.40
2023-03-26T07:30:52.768Z,2.70
2023-03-26T07:33:28.707Z,2.60
2023-03-26T07:35:58.895Z,2.83
2023-03-26T07:38:34.396Z,2.70
2023-03-26T07:41:16.651Z,2.60
2023-03-26T07:43:55.278Z,2.58
2023-03-26T07:46:28.438Z,3.00
2023-03-26T07:48:58.409Z,2.20
2023-03-26T07:51:25.831Z,2.72
2023-03-26T07:53:53.039Z,2.10
2023-03-26T07:56:22.209Z,2.38
2023-03-26T07:58:49.364Z,2.63
2023-03-26T08:01:43.014Z,2.10
2023-03-26T08:04:24.719Z,2.47
2023-03-26T08:06:59.029Z,2.50
2023-03-26T08:09:31.845Z,2.38
2023-03-26T08:11:59.070Z,2.53
2023-03-26T08:14:41.629Z,2.33
2023-03-26T08:17:12.202Z,2.28
2023-03-26T08:19:40.789Z,1.98
2023-03-26T08:22:11.542Z,2.25
2023-03-26T08:24:57.245Z,2.50
2023-03-26T08:27:29.792Z,2.92
2023-03-26T08:30:17.917Z,2.38
2023-03-26T08:32:50.550Z,2.58
2023-03-26T08:35:17.920Z,2.95
2023-03-26T08:37:45.362Z,3.10
2023-03-26T08:40:13.648Z,2.65
2023-03-26T08:42:49.861Z,3.05
2023-03-26T08:45:47.898Z,2.75
2023-03-26T08:48:15.492Z,2.58
2023-03-26T08:50:49.956Z,3.17
2023-03-26T08:53:19.865Z,3.35
2023-03-26T08:55:58.097Z,3.13
2023-03-26T08:58:25.141Z,3.83
2023-03-26T09:00:55.477Z,4.13
2023-03-26T09:03:41.534Z,4.10
2023-03-26T09:06:15.418Z,4.35
2023-03-26T09:08:53.737Z,4.35
2023-03-26T09:11:44.727Z,4.22
2023-03-26T09:14:30.725Z,4.97
2023-03-26T09:17:12.882Z,4.50
2023-03-26T09:19:48.715Z,4.90
2023-03-26T09:22:21.544Z,5.35
2023-03-26T09:24:48.604Z,5.50
2023-03-26T09:27:28.137Z,6.40
2023-03-26T09:30:13.661Z,6.22
2023-03-26T09:32:51.868Z,6.60
2023-03-26T09:35:21.789Z,6.65
2023-03-26T09:37:56.958Z,6.65
2023-03-26T09:40:29.589Z,6.75
2023-03-26T09:43:24.706Z,6.60
2023-03-26T09:45:57.731Z,8.00
2023-03-26T09:48:34.165Z,6.82
2023-03-26T09:51:10.398Z,6.57
2023-03-26T09:53:38.484Z,8.02
2023-03-26T09:56:12.817Z,7.53
2023-03-26T09:58:40.860Z,7.65
2023-03-26T10:01:12.561Z,7.18
2023-03-26T10:03:50.502Z,7.82
2023-03-26T10:06:20.611Z,7.97
2023-03-26T10:09:14.048Z,9.77
2023-03-26T10:12:00.831Z,8.88
2023-03-26T10:14:34.208Z,9.30
2023-03-26T10:17:15.581Z,8.23
2023-03-26T10:19:58.238Z,9.02
2023-03-26T10:22:31.217Z,9.40
2023-03-26T10:25:17.563Z,9.10
2023-03-26T10:27:58.149Z,10.18
2023-03-26T10:30:44.209Z,9.35
2023-03-26T10:33:14.217Z,9.32
2023-03-26T10:36:00.752Z,9.95
2023-03-26T10:38:33.664Z,9.48
2023-03-26T10:41:12.365Z,10.32
2023-03-26T10:43:42.611Z,10.52
2023-03-26T10:46:32.402Z,11.03
2023-03-26T10:49:04.603Z,10.85
2023-03-26T10:51:50.465Z,10.63
2023-03-26T10:54:30.928Z,10.52
2023-03-26T10:56:58.487Z,10.45
2023-03-26T10:59:27.544Z,8.88
2023-03-26T11:02:13.236Z,9.23
2023-03-26T11:04:46.483Z,9.45
2023-03-26T11:07:32.171Z,8.90
2023-03-26T11:10:05.247Z,8.80
2023-03-26T11:12:42.831Z,8.60
2023-03-26T11:15:25.292Z,8.60
2023-03-26T11:18:09.041Z,7.95
2023-03-26T11:20:42.448Z,7.78
2023-03-26T11:23:21.614Z,7.63
2023-03-26T11:26:03.732Z,7.78
2023-03-26T11:29:03.743Z,6.40
2023-03-26T11:31:52.272Z,7.20
2023-03-26T11:34:22.004Z,7.93
2023-03-26T11:36:52.535Z,7.00
2023-03-26T11:39:24.944Z,6.80
2023-03-26T11:41:53.651Z,6.45
2023-03-26T11:44:26.658Z,5.95
2023-03-26T11:47:01.317Z,5.55
2023-03-26T11:49:29.630Z,5.43
2023-03-26T11:51:56.765Z,5.72
2023-03-26T11:54:23.858Z,5.20
2023-03-26T11:57:05.852Z,5.55
2023-03-26T11:59:53.316Z,5.05
2023-03-26T12:02:29.916Z,4.95
2023-03-26T12:05:18.516Z,5.95
2023-03-26T12:07:56.919Z,5.70
2023-03-26T12:10:26.012Z,4.93
2023-03-26T12:12:54.712Z,4.82
2023-03-26T12:15:22.394Z,4.93
2023-03-26T12:17:53.562Z,4.97
2023-03-26T12:20:26.758Z,5.22
2023-03-26T12:22:53.911Z,5.10
2023-03-26T12:25:22.341Z,4.80
2023-03-26T12:27:50.901Z,4.22
2023-03-26T12:30:30.722Z,3.20
2023-03-26T12:33:03.726Z,3.25
2023-03-26T12:35:34.242Z,2.92
2023-03-26T12:38:21.895Z,2.85
2023-03-26T12:40:49.749Z,2.78
2023-03-26T12:44:52.752Z,2.63
2023-03-26T12:47:57.560Z,2.95
2023-03-26T12:49:19.762Z,1.52
2023-03-26T12:51:59.252Z,0.95
2023-03-26T12:54:34.788Z,1.10
2023-03-26T12:57:13.363Z,1.10
2023-03-26T12:59:59.400Z,1.63
2023-03-26T13:02:32.347Z,1.80
2023-03-26T13:05:09.416Z,2.45
2023-03-26T13:07:51.842Z,3.20
2023-03-26T13:10:31.054Z,4.90
2023-03-26T13:13:16.924Z,2.70
2023-03-26T13:15:47.913Z,2.50
2023-03-26T13:18:33.884Z,2.25
2023-03-26T13:21:08.931Z,2.05
2023-03-26T13:23:42.084Z,2.42
2023-03-26T13:26:24.335Z,2.67
2023-03-26T13:28:54.160Z,2.55
2023-03-26T13:31:30.390Z,2.30
2023-03-26T13:34:03.817Z,3.00
2023-03-26T13:36:36.105Z,2.40
2023-03-26T13:39:10.589Z,2.70
2023-03-26T13:41:57.988Z,3.15
2023-03-26T13:44:33.092Z,3.83
2023-03-26T13:47:04.035Z,2.65
2023-03-26T13:49:38.605Z,2.50
2023-03-26T13:52:11.302Z,3.15
2023-03-26T13:54:47.771Z,3.13
2023-03-26T13:57:31.941Z,3.75
2023-03-26T14:00:01.769Z,2.63
2023-03-26T14:02:36.525Z,2.65
2023-03-26T14:05:10.199Z,2.80
2023-03-26T14:07:43.162Z,2.70
2023-03-26T14:10:36.692Z,1.95
2023-03-26T14:13:07.777Z,2.13
2023-03-26T14:18:08.122Z,2.42
2023-03-26T14:20:41.457Z,2.50
2023-03-26T14:23:15.012Z,2.13
2023-03-26T14:25:48.035Z,2.40
2023-03-26T14:28:20.876Z,2.50
2023-03-26T14:30:48.415Z,2.70
2023-03-26T14:33:28.112Z,1.95
2023-03-26T14:36:09.182Z,2.35
2023-03-26T14:38:55.059Z,2.22
2023-03-26T14:41:45.787Z,2.83
2023-03-26T14:44:47.740Z,2.92
2023-03-26T14:47:16.805Z,3.00
2023-03-26T14:50:03.921Z,3.40
2023-03-26T14:52:50.008Z,3.28
2023-03-26T14:55:37.486Z,2.80
2023-03-26T14:58:24.469Z,2.95
2023-03-26T15:01:10.872Z,2.80
2023-03-26T15:03:48.915Z,2.97
2023-03-26T15:06:34.592Z,2.25
2023-03-26T15:09:13.857Z,2.72
2023-03-26T15:11:52.833Z,2.63
2023-03-26T15:14:40.287Z,2.80
2023-03-26T15:17:27.550Z,2.47
2023-03-26T15:19:54.727Z,2.80
2023-03-26T15:22:27.606Z,3.08
2023-03-26T15:25:20.542Z,2.80
2023-03-26T15:28:06.367Z,2.65
2023-03-26T15:30:42.649Z,2.50
2023-03-26T15:33:17.951Z,2.42
2023-03-26T15:35:45.368Z,2.50
2023-03-26T15:38:25.048Z,3.20
2023-03-26T15:40:52.159Z,4.00
2023-03-26T15:43:21.852Z,2.92
2023-03-26T15:45:54.091Z,2.95
2023-03-26T15:48:40.018Z,3.35
2023-03-26T15:51:32.812Z,3.00
2023-03-26T15:54:23.786Z,2.60
2023-03-26T15:57:04.315Z,2.85
2023-03-26T15:59:37.599Z,2.72
2023-03-26T16:02:10.353Z,2.45
2023-03-26T16:04:57.542Z,2.67
2023-03-26T16:07:30.190Z,2.80
2023-03-26T16:10:09.986Z,3.13
2023-03-26T16:12:46.960Z,2.47
2023-03-26T16:15:21.183Z,3.28
2023-03-26T16:18:08.350Z,3.30
2023-03-26T16:20:46.670Z,2.75
2023-03-26T16:23:27.400Z,2.83
2023-03-26T16:25:57.822Z,3.08
2023-03-26T16:28:28.406Z,3.80
2023-03-26T16:31:23.348Z,3.15
2023-03-26T16:34:08.015Z,3.47
2023-03-26T16:36:35.853Z,3.00
2023-03-26T16:39:06.154Z,3.72
2023-03-26T16:41:34.191Z,3.47
2023-03-26T16:44:02.262Z,3.97
2023-03-26T16:46:33.327Z,4.15
2023-03-26T16:49:03.409Z,4.10
2023-03-26T16:51:36.746Z,3.95
2023-03-26T16:54:22.777Z,4.53
2023-03-26T16:57:16.132Z,4.45
2023-03-26T17:00:07.591Z,5.13
2023-03-26T17:02:45.785Z,5.30
2023-03-26T17:05:21.202Z,5.28
2023-03-26T17:07:51.381Z,5.20
2023-03-26T17:10:39.556Z,5.57
2023-03-26T17:13:17.194Z,5.28
2023-03-26T17:15:49.092Z,6.57
2023-03-26T17:18:27.506Z,5.50
2023-03-26T17:21:01.082Z,5.68
2023-03-26T17:23:39.663Z,5.65
2023-03-26T17:26:12.161Z,5.40
2023-03-26T17:28:58.080Z,5.55
2023-03-26T17:31:34.476Z,5.00
2023-03-26T17:34:20.731Z,4.10
2023-03-26T17:36:56.095Z,3.88
2023-03-26T17:39:46.158Z,4.63
2023-03-26T17:42:16.310Z,4.60
2023-03-26T17:44:45.530Z,4.90
2023-03-26T17:47:23.168Z,5.10
2023-03-26T17:49:52.471Z,7.05
2023-03-26T17:52:24.794Z,5.20
2023-03-26T17:54:53.080Z,5.35
2023-03-26T17:57:26.056Z,6.97
2023-03-26T17:59:56.685Z,6.97
2023-03-26T18:02:31.722Z,8.05
2023-03-26T18:04:59.822Z,7.90
2023-03-26T18:07:45.144Z,7.78
2023-03-26T18:10:28.737Z,8.63
2023-03-26T18:13:15.825Z,9.15
2023-03-26T18:15:46.020Z,9.73
2023-03-26T18:18:21.476Z,8.40
2023-03-26T18:20:49.197Z,8.15
2023-03-26T18:23:27.285Z,8.43
2023-03-26T18:25:58.970Z,7.82
2023-03-26T18:28:35.984Z,8.07
2023-03-26T18:31:10.781Z,9.10
2023-03-26T18:33:45.366Z,8.45
2023-03-26T18:36:13.361Z,9.15
2023-03-26T18:38:42.441Z,8.85
2023-03-26T18:41:16.436Z,9.52
2023-03-26T18:43:44.146Z,8.25
2023-03-26T18:46:13.644Z,9.13
2023-03-26T18:48:41.083Z,9.38
2023-03-26T18:51:08.426Z,9.60
2023-03-26T18:53:40.149Z,10.18
2023-03-26T18:56:21.390Z,9.75
2023-03-26T18:58:52.819Z,9.90
2023-03-26T19:01:25.820Z,9.68
2023-03-26T19:03:53.982Z,9.60
2023-03-26T19:06:21.273Z,10.02
2023-03-26T19:08:48.709Z,8.90
2023-03-26T19:11:17.467Z,8.45
2023-03-26T19:13:46.340Z,7.97
2023-03-26T19:16:20.888Z,8.25
2023-03-26T19:18:48.062Z,8.40
2023-03-26T19:21:17.959Z,8.05
2023-03-26T19:23:46.815Z,8.73
2023-03-26T19:26:14.374Z,9.05
2023-03-26T19:28:49.412Z,8.68
2023-03-26T19:31:16.553Z,7.82
2023-03-26T19:33:44.371Z,7.97
2023-03-26T19:36:14.813Z,8.23
2023-03-26T19:38:52.374Z,7.40
2023-03-26T19:41:19.492Z,7.05
2023-03-26T19:43:50.694Z,7.30
2023-03-26T19:48:49.253Z,5.88
2023-03-26T19:51:21.004Z,6.40
2023-03-26T19:53:55.518Z,5.93
2023-03-26T19:56:23.014Z,5.78
2023-03-26T19:58:50.307Z,6.55
2023-03-26T20:01:22.827Z,6.60
2023-03-26T20:03:51.605Z,5.97
2023-03-26T20:06:22.195Z,6.45
2023-03-26T20:08:55.248Z,6.28
2023-03-26T20:11:23.550Z,6.28
2023-03-26T20:13:51.055Z,7.15
2023-03-26T20:16:26.921Z,6.63
2023-03-26T20:18:57.201Z,6.72
2023-03-26T20:21:27.394Z,6.93
2023-03-26T20:23:54.725Z,5.60
2023-03-26T20:26:23.196Z,6.57
2023-03-26T20:28:53.380Z,6.28
2023-03-26T20:31:22.316Z,6.63
2023-03-26T20:33:50.612Z,6.65
2023-03-26T20:36:33.329Z,6.78
2023-03-26T20:39:02.393Z,6.28
2023-03-26T20:41:29.570Z,5.95
2023-03-26T20:43:56.914Z,5.40
2023-03-26T20:46:30.781Z,4.95
2023-03-26T20:48:59.555Z,5.07
2023-03-26T20:51:28.269Z,4.80
2023-03-26T20:53:56.078Z,5.50
2023-03-26T20:56:23.459Z,4.70
2023-03-26T20:59:03.639Z,4.78
2023-03-26T21:01:35.467Z,5.38
2023-03-26T21:04:04.327Z,5.13
2023-03-26T21:06:31.644Z,4.30
2023-03-26T21:08:58.997Z,5.05
2023-03-26T21:11:44.890Z,4.90
2023-03-26T21:14:21.217Z,4.55
2023-03-26T21:16:48.633Z,4.80
2023-03-26T21:19:16.216Z,4.75
2023-03-26T21:21:57.720Z,4.97
2023-03-26T21:24:40.027Z,4.30
2023-03-26T21:27:19.197Z,5.28
2023-03-26T21:29:46.646Z,4.30
2023-03-26T21:32:14.716Z,4.45
2023-03-26T21:34:55.776Z,4.53
2023-03-26T21:37:25.680Z,4.60
2023-03-26T21:39:53.050Z,4.68
2023-03-26T21:42:20.479Z,4.65
2023-03-26T21:44:47.953Z,4.60
2023-03-26T21:47:15.480Z,4.15
2023-03-26T21:49:42.767Z,4.68
2023-03-26T21:52:14.783Z,5.22
2023-03-26T21:54:43.327Z,4.35
2023-03-26T21:57:33.927Z,4.95
2023-03-26T22:00:18.737Z,4.50
2023-03-26T22:02:52.293Z,4.00
2023-03-26T22:05:21.585Z,4.03
2023-03-26T22:07:48.702Z,4.35
2023-03-26T22:10:16.286Z,4.25
2023-03-26T22:12:43.485Z,3.90
2023-03-26T22:15:13.702Z,4.13
2023-03-26T22:17:43.457Z,3.78
2023-03-26T22:20:13.032Z,4.07
2023-03-26T22:22:41.552Z,4.30
2023-03-26T22:25:10.371Z,3.78
2023-03-26T22:27:43.840Z,4.30
2023-03-26T22:30:12.597Z,3.90
2023-03-26T22:32:39.916Z,4.45
2023-03-26T22:35:07.250Z,4.00
2023-03-26T22:37:35.483Z,4.32
2023-03-26T22:40:05.963Z,3.97
2023-03-26T22:42:33.033Z,3.78
2023-03-26T22:45:00.153Z,3.90
2023-03-26T22:47:27.274Z,3.83
2023-03-26T22:49:54.397Z,3.83
2023-03-26T22:52:21.482Z,4.20
2023-03-26T22:54:48.585Z,3.80
2023-03-26T22:57:16.441Z,4.20
2023-03-26T22:59:43.737Z,4.28
2023-03-26T23:02:12.463Z,4.13
2023-03-26T23:04:39.748Z,3.95
2023-03-26T23:07:06.909Z,3.78
2023-03-26T23:09:34.071Z,4.00
2023-03-26T23:12:01.363Z,4.03
2023-03-26T23:14:28.736Z,3.42
2023-03-26T23:16:57.255Z,4.00
2023-03-26T23:19:24.517Z,4.47
2023-03-26T23:21:51.616Z,3.90
2023-03-26T23:24:18.791Z,4.20
2023-03-26T23:26:50.687Z,4.57
2023-03-26T23:29:18.418Z,4.10
2023-03-26T23:31:45.591Z,4.50
2023-03-26T23:34:13.535Z,4.65
2023-03-26T23:36:41.821Z,4.32
2023-03-26T23:39:09.286Z,4.07
2023-03-26T23:41:36.875Z,4.22
2023-03-26T23:44:04.319Z,3.92
2023-03-26T23:46:34.816Z,3.80
2023-03-26T23:49:04.868Z,4.20
2023-03-26T23:51:32.683Z,4.00
2023-03-26T23:54:00.491Z,4.20
2023-03-26T23:56:28.832Z,4.78
2023-03-26T23:58:56.228Z,4.38
